createdAt,value
2022-08-19T00:04:41.110Z,9.50
2022-08-19T00:09:43.250Z,9.80
2022-08-19T00:14:45.311Z,9.55
2022-08-19T00:19:47.454Z,10.55
2022-08-19T00:24:50.869Z,11.88
2022-08-19T00:29:53.227Z,12.27
2022-08-19T00:34:55.357Z,12.73
2022-08-19T00:39:57.483Z,12.80
2022-08-19T00:44:59.553Z,13.52
2022-08-19T00:50:01.690Z,13.48
2022-08-19T00:55:09.597Z,13.90
2022-08-19T01:00:15.475Z,14.23
2022-08-19T01:05:21.745Z,14.07
2022-08-19T01:10:34.729Z,12.82
2022-08-19T01:15:48.642Z,13.13
2022-08-19T01:20:52.828Z,12.57
2022-08-19T01:25:56.660Z,13.35
2022-08-19T01:31:01.161Z,13.65
2022-08-19T01:36:22.793Z,13.90
2022-08-19T01:41:25.072Z,12.95
2022-08-19T01:46:27.075Z,12.35
2022-08-19T01:51:29.095Z,13.35
2022-08-19T01:56:40.642Z,13.43
2022-08-19T02:01:42.970Z,12.45
2022-08-19T02:06:45.062Z,13.15
2022-08-19T02:11:47.199Z,13.60
2022-08-19T02:16:49.421Z,14.73
2022-08-19T02:21:51.523Z,15.85
2022-08-19T02:26:53.843Z,16.95
2022-08-19T02:31:55.983Z,16.05
2022-08-19T02:37:03.125Z,16.45
2022-08-19T02:42:06.081Z,16.58
2022-08-19T02:47:08.151Z,16.10
2022-08-19T02:52:10.361Z,15.93
2022-08-19T02:57:12.454Z,15.90
2022-08-19T03:02:14.680Z,15.93
2022-08-19T03:07:19.388Z,16.23
2022-08-19T03:12:21.401Z,16.15
2022-08-19T03:17:23.480Z,17.52
2022-08-19T03:22:26.348Z,16.38
2022-08-19T03:27:34.173Z,15.95
2022-08-19T03:32:36.859Z,17.00
2022-08-19T03:37:47.392Z,16.10
2022-08-19T03:42:50.191Z,16.58
2022-08-19T03:47:52.518Z,15.35
2022-08-19T03:52:54.632Z,17.83
2022-08-19T03:57:59.186Z,18.00
2022-08-19T04:03:01.781Z,17.67
2022-08-19T04:08:09.599Z,18.80
2022-08-19T04:13:15.600Z,19.75
2022-08-19T04:18:18.317Z,20.02
2022-08-19T04:23:20.324Z,19.52
2022-08-19T04:28:24.352Z,20.88
2022-08-19T04:33:28.587Z,22.00
2022-08-19T04:38:30.827Z,22.13
2022-08-19T04:43:34.228Z,22.33
2022-08-19T04:48:37.051Z,22.73
2022-08-19T04:53:46.966Z,23.40
2022-08-19T04:58:52.059Z,24.42
2022-08-19T05:03:54.064Z,26.20
2022-08-19T05:08:57.010Z,25.13
2022-08-19T05:13:59.068Z,23.83
2022-08-19T05:19:20.014Z,23.27
2022-08-19T05:24:23.594Z,22.03
2022-08-19T05:29:27.957Z,23.27
2022-08-19T05:34:41.593Z,21.90
2022-08-19T05:39:45.003Z,21.55
2022-08-19T05:44:50.485Z,21.33
2022-08-19T05:49:52.588Z,22.35
2022-08-19T05:54:57.019Z,21.85
2022-08-19T06:00:01.173Z,20.95
2022-08-19T06:05:06.952Z,20.60
2022-08-19T06:10:11.922Z,21.60
2022-08-19T06:15:15.484Z,20.60
2022-08-19T06:20:29.647Z,21.13
2022-08-19T06:25:41.118Z,22.52
2022-08-19T06:30:44.111Z,20.67
2022-08-19T06:35:46.229Z,22.40
2022-08-19T06:40:48.364Z,21.83
2022-08-19T06:45:52.735Z,22.30
2022-08-19T06:50:56.013Z,22.42
2022-08-19T06:56:01.478Z,21.63
2022-08-19T07:01:07.111Z,22.30
2022-08-19T07:06:41.171Z,19.20
2022-08-19T07:11:38.367Z,19.35
2022-08-19T07:16:43.028Z,20.35
2022-08-19T07:21:49.976Z,19.40
2022-08-19T07:26:54.771Z,21.15
2022-08-19T07:32:00.220Z,21.58
2022-08-19T07:37:04.744Z,21.48
2022-08-19T07:42:09.830Z,21.77
2022-08-19T07:47:49.489Z,23.52
2022-08-19T07:52:40.331Z,24.35
2022-08-19T07:57:42.423Z,24.05
2022-08-19T08:02:44.635Z,23.38
2022-08-19T08:08:05.572Z,25.33
2022-08-19T08:13:09.918Z,24.20
2022-08-19T08:18:13.143Z,22.48
2022-08-19T08:23:30.154Z,24.55
2022-08-19T08:28:32.169Z,22.65
2022-08-19T08:33:35.173Z,22.67
2022-08-19T08:38:40.499Z,21.27
2022-08-19T08:43:46.808Z,21.88
2022-08-19T08:49:00.420Z,22.63
2022-08-19T08:54:07.685Z,22.73
2022-08-19T08:59:21.717Z,22.75
2022-08-19T09:04:24.547Z,22.75
2022-08-19T09:09:35.916Z,20.95
2022-08-19T09:14:59.466Z,21.08
2022-08-19T09:20:11.168Z,21.33
2022-08-19T09:25:16.545Z,17.85
2022-08-19T09:30:23.097Z,19.40
2022-08-19T09:35:29.665Z,16.60
2022-08-19T09:40:35.433Z,13.88
2022-08-19T09:45:40.739Z,10.40
2022-08-19T09:50:51.904Z,10.43
2022-08-19T09:55:56.080Z,9.68
2022-08-19T10:00:59.480Z,9.48
2022-08-19T10:06:03.825Z,8.60
2022-08-19T10:11:27.995Z,9.57
2022-08-19T10:16:30.474Z,8.25
2022-08-19T10:21:35.123Z,9.35
2022-08-19T10:26:39.340Z,9.10
2022-08-19T10:32:00.423Z,9.65
2022-08-19T10:37:06.461Z,10.45
2022-08-19T10:42:14.042Z,10.32
2022-08-19T10:47:17.642Z,9.32
2022-08-19T10:52:35.588Z,9.13
2022-08-19T10:58:01.253Z,9.93
2022-08-19T11:03:03.385Z,9.10
2022-08-19T11:08:07.223Z,10.50
2022-08-19T11:13:25.506Z,13.90
2022-08-19T11:18:28.151Z,15.38
2022-08-19T11:23:30.161Z,17.42
2022-08-19T11:28:32.331Z,18.20
2022-08-19T11:33:34.726Z,19.35
2022-08-19T11:38:37.802Z,18.20
2022-08-19T11:43:40.518Z,20.13
2022-08-19T11:48:43.656Z,19.35
2022-08-19T11:53:46.396Z,20.65
2022-08-19T11:58:49.233Z,20.27
2022-08-19T12:03:53.548Z,19.90
2022-08-19T12:09:00.513Z,19.88
2022-08-19T12:14:03.704Z,19.63
2022-08-19T12:19:06.175Z,17.52
2022-08-19T12:24:08.492Z,17.73
2022-08-19T12:29:10.490Z,17.05
2022-08-19T12:34:12.608Z,16.30
2022-08-19T12:39:14.602Z,14.00
2022-08-19T12:44:17.802Z,12.77
2022-08-19T12:49:44.439Z,13.75
2022-08-19T12:54:44.102Z,13.07
2022-08-19T12:59:46.196Z,9.98
2022-08-19T13:04:48.288Z,4.93
2022-08-19T13:09:52.840Z,6.80
2022-08-19T13:14:55.936Z,7.88
2022-08-19T13:19:58.067Z,8.23
2022-08-19T13:25:00.266Z,7.88
2022-08-19T13:30:23.336Z,6.18
2022-08-19T13:35:25.491Z,5.20
2022-08-19T13:40:27.877Z,5.10
2022-08-19T13:45:34.912Z,7.25
2022-08-19T13:50:43.198Z,8.38
2022-08-19T13:55:45.706Z,8.55
2022-08-19T14:00:49.121Z,8.35
2022-08-19T14:05:51.265Z,7.97
2022-08-19T14:10:53.304Z,7.28
2022-08-19T14:15:55.486Z,11.20
2022-08-19T14:20:57.720Z,10.80
2022-08-19T14:26:08.634Z,9.35
2022-08-19T14:31:17.509Z,9.48
2022-08-19T14:36:21.224Z,9.82
2022-08-19T14:41:24.509Z,9.85
2022-08-19T14:46:29.541Z,8.07
2022-08-19T14:51:32.389Z,8.30
2022-08-19T14:56:34.355Z,8.00
2022-08-19T15:01:36.474Z,8.13
2022-08-19T15:06:38.892Z,8.50
2022-08-19T15:11:40.950Z,9.02
2022-08-19T15:16:43.841Z,8.52
2022-08-19T15:21:45.887Z,7.78
2022-08-19T15:26:47.977Z,7.85
2022-08-19T15:31:51.584Z,7.15
2022-08-19T15:36:53.723Z,6.75
2022-08-19T15:41:55.750Z,5.72
2022-08-19T15:46:58.196Z,6.18
2022-08-19T15:52:01.515Z,6.28
2022-08-19T15:57:24.479Z,6.30
2022-08-19T16:02:46.650Z,8.00
2022-08-19T16:07:48.825Z,8.82
2022-08-19T16:12:51.021Z,7.10
2022-08-19T16:17:57.076Z,3.75
2022-08-19T16:22:59.886Z,3.22
2022-08-19T16:28:07.051Z,4.95
2022-08-19T16:33:10.327Z,5.97
2022-08-19T16:38:12.343Z,6.47
2022-08-19T16:43:14.605Z,5.85
2022-08-19T16:48:16.596Z,6.88
2022-08-19T16:53:21.272Z,7.00
2022-08-19T16:58:28.256Z,6.97
2022-08-19T17:03:36.379Z,7.47
2022-08-19T17:08:39.336Z,6.70
2022-08-19T17:13:41.469Z,6.05
2022-08-19T17:18:45.714Z,6.28
2022-08-19T17:23:48.727Z,5.57
2022-08-19T17:28:52.975Z,5.30
2022-08-19T17:33:56.049Z,4.72
2022-08-19T17:39:00.613Z,3.58
2022-08-19T17:44:03.799Z,2.45
2022-08-19T17:49:06.735Z,2.50
2022-08-19T17:54:15.462Z,2.17
2022-08-19T17:59:17.495Z,2.47
2022-08-19T18:04:19.994Z,2.75
2022-08-19T18:09:24.570Z,2.42
2022-08-19T18:14:35.072Z,2.53
2022-08-19T18:19:41.306Z,2.47
2022-08-19T18:24:45.990Z,2.50
2022-08-19T18:29:48.549Z,2.42
2022-08-19T18:34:50.892Z,2.85
2022-08-19T18:40:11.938Z,3.28
2022-08-19T18:45:32.667Z,2.85
2022-08-19T18:50:34.968Z,2.60
2022-08-19T18:55:37.342Z,3.83
2022-08-19T19:00:40.751Z,4.75
2022-08-19T19:05:44.216Z,4.25
2022-08-19T19:10:47.591Z,3.45
2022-08-19T19:15:54.455Z,4.22
2022-08-19T19:20:57.385Z,4.15
2022-08-19T19:26:00.815Z,5.57
2022-08-19T19:31:02.965Z,4.60
2022-08-19T19:36:05.617Z,4.53
2022-08-19T19:41:07.603Z,4.15
2022-08-19T19:46:09.904Z,4.28
2022-08-19T19:51:13.307Z,4.78
2022-08-19T19:56:15.987Z,5.00
2022-08-19T20:01:22.392Z,5.43
2022-08-19T20:06:28.998Z,2.35
2022-08-19T20:11:49.906Z,2.08
2022-08-19T20:16:56.254Z,1.65
2022-08-19T20:21:58.880Z,2.17
2022-08-19T20:27:02.234Z,1.70
2022-08-19T20:32:04.483Z,1.90
2022-08-19T20:37:09.065Z,2.00
2022-08-19T20:42:11.189Z,1.90
2022-08-19T20:47:13.257Z,2.05
2022-08-19T20:52:15.423Z,2.50
2022-08-19T20:57:17.476Z,1.83
2022-08-19T21:02:20.048Z,2.30
2022-08-19T21:07:22.589Z,1.90
2022-08-19T21:12:28.176Z,2.50
2022-08-19T21:17:30.232Z,2.70
2022-08-19T21:22:32.301Z,2.38
2022-08-19T21:27:34.323Z,2.53
2022-08-19T21:32:36.584Z,2.50
2022-08-19T21:37:38.869Z,2.90
2022-08-19T21:42:40.893Z,3.20
2022-08-19T21:47:43.748Z,2.92
2022-08-19T21:52:46.749Z,4.80
2022-08-19T21:57:48.888Z,5.30
2022-08-19T22:02:51.427Z,5.07
2022-08-19T22:07:59.220Z,5.45
2022-08-19T22:13:02.184Z,6.13
2022-08-19T22:18:04.231Z,6.70
2022-08-19T22:23:07.339Z,6.18
2022-08-19T22:28:12.291Z,6.55
2022-08-19T22:33:16.933Z,6.18
2022-08-19T22:38:19.299Z,5.70
2022-08-19T22:43:29.938Z,5.43
2022-08-19T22:48:32.623Z,5.40
2022-08-19T22:53:37.032Z,5.65
2022-08-19T22:58:39.042Z,5.57
2022-08-19T23:03:42.611Z,5.22
2022-08-19T23:08:44.827Z,4.30
2022-08-19T23:13:47.140Z,4.25
2022-08-19T23:18:49.260Z,4.38
2022-08-19T23:23:58.080Z,4.35
2022-08-19T23:29:18.556Z,4.00
2022-08-19T23:34:20.942Z,4.05
2022-08-19T23:39:22.931Z,3.92
2022-08-19T23:44:25.251Z,4.07
2022-08-19T23:49:27.561Z,4.30
2022-08-19T23:54:43.717Z,4.35
2022-08-19T23:59:46.072Z,4.85
